createdAt,value
2022-10-22T00:00:14.039Z,91
2022-10-22T00:02:14.376Z,91
2022-10-22T00:04:12.484Z,91
2022-10-22T00:06:14.467Z,91
2022-10-22T00:08:14.087Z,91
2022-10-22T00:10:12.276Z,91
2022-10-22T00:12:11.785Z,91
2022-10-22T00:14:12.763Z,91
2022-10-22T00:16:11.084Z,91
2022-10-22T00:18:13.926Z,91
2022-10-22T00:20:11.528Z,92
2022-10-22T00:22:10.918Z,92
2022-10-22T00:24:12.431Z,92
2022-10-22T00:26:10.897Z,92
2022-10-22T00:28:10.828Z,92
2022-10-22T00:30:11.107Z,92
2022-10-22T00:32:10.970Z,92
2022-10-22T00:34:11.245Z,92
2022-10-22T00:36:12.401Z,92
2022-10-22T00:38:13.966Z,92
2022-10-22T00:42:10.999Z,92
2022-10-22T00:44:09.307Z,92
2022-10-22T00:46:11.723Z,92
2022-10-22T00:48:10.818Z,92
2022-10-22T00:50:13.231Z,92
2022-10-22T00:52:10.941Z,92
2022-10-22T00:54:11.889Z,92
2022-10-22T00:56:10.889Z,92
2022-10-22T00:58:10.037Z,92
2022-10-22T01:00:11.221Z,92
2022-10-22T01:02:10.402Z,92
2022-10-22T01:04:10.914Z,92
2022-10-22T01:06:13.177Z,92
2022-10-22T01:10:10.886Z,92
2022-10-22T01:12:10.865Z,92
2022-10-22T01:14:09.408Z,92
2022-10-22T01:16:11.951Z,92
2022-10-22T01:18:13.933Z,92
2022-10-22T01:20:10.837Z,92
2022-10-22T01:22:12.436Z,92
2022-10-22T01:24:10.952Z,92
2022-10-22T01:26:11.016Z,92
2022-10-22T01:28:11.169Z,92
2022-10-22T01:30:10.816Z,92
2022-10-22T01:32:09.357Z,92
2022-10-22T01:34:12.595Z,92
2022-10-22T01:36:10.878Z,92
2022-10-22T01:38:10.948Z,92
2022-10-22T01:40:12.663Z,92
2022-10-22T01:42:11.743Z,92
2022-10-22T01:44:11.687Z,92
2022-10-22T01:46:10.853Z,92
2022-10-22T01:48:11.749Z,92
2022-10-22T01:50:12.526Z,92
2022-10-22T01:52:10.843Z,92
2022-10-22T01:54:10.882Z,92
2022-10-22T01:56:10.419Z,92
2022-10-22T01:58:12.495Z,92
2022-10-22T02:00:11.353Z,92
2022-10-22T02:02:14.075Z,92
2022-10-22T02:04:11.602Z,92
2022-10-22T02:06:10.907Z,92
2022-10-22T02:08:08.915Z,92
2022-10-22T02:10:11.785Z,92
2022-10-22T02:12:10.973Z,92
2022-10-22T02:14:11.159Z,92
2022-10-22T02:16:10.873Z,92
2022-10-22T02:18:11.190Z,92
2022-10-22T02:20:14.098Z,92
2022-10-22T02:22:14.032Z,91
2022-10-22T02:24:10.898Z,91
2022-10-22T02:26:11.078Z,91
2022-10-22T02:28:14.285Z,91
2022-10-22T02:30:11.081Z,91
2022-10-22T02:32:10.621Z,91
2022-10-22T02:34:11.140Z,91
2022-10-22T02:36:10.838Z,91
2022-10-22T02:38:11.248Z,91
2022-10-22T02:40:15.583Z,91
2022-10-22T02:42:10.855Z,91
2022-10-22T02:44:12.574Z,91
2022-10-22T02:48:10.905Z,91
2022-10-22T02:50:10.713Z,91
2022-10-22T02:52:17.092Z,91
2022-10-22T02:54:10.858Z,91
2022-10-22T02:56:09.012Z,91
2022-10-22T02:58:10.234Z,91
2022-10-22T03:00:13.790Z,91
2022-10-22T03:02:10.932Z,91
2022-10-22T03:04:08.018Z,91
2022-10-22T03:06:12.726Z,91
2022-10-22T03:08:11.666Z,91
2022-10-22T03:10:14.069Z,91
2022-10-22T03:12:17.380Z,91
2022-10-22T03:14:10.534Z,91
2022-10-22T03:16:10.939Z,91
2022-10-22T03:18:14.351Z,91
2022-10-22T03:20:11.164Z,91
2022-10-22T03:22:11.305Z,91
2022-10-22T03:24:12.623Z,91
2022-10-22T03:26:12.507Z,91
2022-10-22T03:28:10.756Z,91
2022-10-22T03:30:10.929Z,91
2022-10-22T03:32:11.174Z,91
2022-10-22T03:34:09.373Z,91
2022-10-22T03:36:14.089Z,91
2022-10-22T03:38:10.743Z,91
2022-10-22T03:40:10.899Z,91
2022-10-22T03:42:10.950Z,91
2022-10-22T03:44:12.551Z,91
2022-10-22T03:46:12.506Z,91
2022-10-22T03:48:12.490Z,91
2022-10-22T03:50:11.211Z,91
2022-10-22T03:52:11.682Z,91
2022-10-22T03:54:08.983Z,91
2022-10-22T03:56:11.281Z,91
2022-10-22T03:58:12.613Z,91
2022-10-22T04:00:11.869Z,91
2022-10-22T04:02:11.708Z,91
2022-10-22T04:04:14.037Z,91
2022-10-22T04:06:11.241Z,91
2022-10-22T04:08:08.057Z,91
2022-10-22T04:10:11.024Z,91
2022-10-22T04:14:11.266Z,91
2022-10-22T04:16:11.242Z,91
2022-10-22T04:18:13.800Z,91
2022-10-22T04:20:11.750Z,91
2022-10-22T04:22:09.401Z,91
2022-10-22T04:24:10.827Z,91
2022-10-22T04:26:10.908Z,91
2022-10-22T04:28:14.274Z,91
2022-10-22T04:30:11.590Z,91
2022-10-22T04:32:10.867Z,91
2022-10-22T04:34:12.688Z,91
2022-10-22T04:36:10.921Z,91
2022-10-22T04:38:10.947Z,91
2022-10-22T04:40:14.030Z,91
2022-10-22T04:42:10.873Z,91
2022-10-22T04:44:16.013Z,91
2022-10-22T04:46:12.648Z,91
2022-10-22T04:48:12.524Z,91
2022-10-22T04:50:13.794Z,91
2022-10-22T04:52:14.019Z,91
2022-10-22T04:54:11.058Z,91
2022-10-22T04:56:10.998Z,91
2022-10-22T04:58:12.139Z,91
2022-10-22T05:00:10.084Z,91
2022-10-22T05:02:11.913Z,91
2022-10-22T05:04:12.204Z,91
2022-10-22T05:06:10.467Z,91
2022-10-22T05:08:12.850Z,91
2022-10-22T05:10:10.594Z,90
2022-10-22T05:12:10.955Z,90
2022-10-22T05:14:11.129Z,91
2022-10-22T05:16:10.330Z,91
2022-10-22T05:18:10.880Z,91
2022-10-22T05:20:12.555Z,91
2022-10-22T05:22:11.297Z,90
2022-10-22T05:24:10.845Z,90
2022-10-22T05:26:12.628Z,90
2022-10-22T05:28:12.911Z,90
2022-10-22T05:30:12.457Z,90
2022-10-22T05:32:14.061Z,90
2022-10-22T05:34:10.933Z,91
2022-10-22T05:36:11.023Z,91
2022-10-22T05:38:12.109Z,91
2022-10-22T05:40:19.192Z,91
2022-10-22T05:42:13.919Z,91
2022-10-22T05:44:10.948Z,91
2022-10-22T05:46:10.926Z,91
2022-10-22T05:48:10.962Z,91
2022-10-22T05:50:10.926Z,91
2022-10-22T05:52:10.888Z,91
2022-10-22T05:54:11.261Z,90
2022-10-22T05:56:14.148Z,90
2022-10-22T05:58:12.137Z,91
2022-10-22T06:00:14.206Z,91
2022-10-22T06:02:11.011Z,91
2022-10-22T06:04:14.019Z,91
2022-10-22T06:06:13.043Z,91
2022-10-22T06:08:08.943Z,91
2022-10-22T06:10:14.013Z,91
2022-10-22T06:12:11.180Z,91
2022-10-22T06:14:13.435Z,91
2022-10-22T06:16:14.683Z,91
2022-10-22T06:18:10.857Z,91
2022-10-22T06:20:10.893Z,91
2022-10-22T06:22:14.320Z,91
2022-10-22T06:24:14.384Z,91
2022-10-22T06:26:11.010Z,91
2022-10-22T06:28:14.015Z,91
2022-10-22T06:30:10.835Z,91
2022-10-22T06:32:10.500Z,91
2022-10-22T06:34:10.885Z,91
2022-10-22T06:36:10.993Z,91
2022-10-22T06:38:14.049Z,91
2022-10-22T06:40:10.940Z,90
2022-10-22T06:42:11.145Z,90
2022-10-22T06:44:12.501Z,90
2022-10-22T06:46:12.653Z,90
2022-10-22T06:48:11.222Z,90
2022-10-22T06:52:09.420Z,90
2022-10-22T06:54:10.953Z,90
2022-10-22T06:56:10.960Z,90
2022-10-22T06:58:08.094Z,90
2022-10-22T07:00:11.074Z,90
2022-10-22T07:02:14.107Z,90
2022-10-22T07:04:11.693Z,90
2022-10-22T07:06:11.344Z,90
2022-10-22T07:08:10.727Z,90
2022-10-22T07:10:12.160Z,90
2022-10-22T07:12:10.937Z,90
2022-10-22T07:14:09.723Z,90
2022-10-22T07:16:11.359Z,89
2022-10-22T07:18:10.966Z,89
2022-10-22T07:20:08.061Z,89
2022-10-22T07:22:12.005Z,89
2022-10-22T07:24:07.689Z,89
2022-10-22T07:26:11.719Z,89
2022-10-22T07:28:10.910Z,89
2022-10-22T07:30:10.852Z,89
2022-10-22T07:32:10.931Z,89
2022-10-22T07:34:11.152Z,89
2022-10-22T07:36:14.376Z,89
2022-10-22T07:38:11.759Z,89
2022-10-22T07:40:11.730Z,89
2022-10-22T07:42:10.897Z,89
2022-10-22T07:44:10.832Z,89
2022-10-22T07:46:13.032Z,89
2022-10-22T07:48:11.287Z,89
2022-10-22T07:50:11.788Z,89
2022-10-22T07:52:10.925Z,89
2022-10-22T07:54:11.409Z,89
2022-10-22T07:56:10.930Z,89
2022-10-22T07:58:11.034Z,89
2022-10-22T08:00:10.951Z,89
2022-10-22T08:02:10.972Z,89
2022-10-22T08:04:10.882Z,89
2022-10-22T08:06:11.082Z,89
2022-10-22T08:08:11.750Z,89
2022-10-22T08:10:27.312Z,89
2022-10-22T08:12:10.895Z,89
2022-10-22T08:14:10.899Z,89
2022-10-22T08:16:12.238Z,89
2022-10-22T08:18:12.709Z,89
2022-10-22T08:20:12.506Z,89
2022-10-22T08:22:12.842Z,89
2022-10-22T08:24:13.348Z,89
2022-10-22T08:26:11.212Z,89
2022-10-22T08:28:14.996Z,89
2022-10-22T08:30:10.968Z,89
2022-10-22T08:32:11.242Z,89
2022-10-22T08:35:19.098Z,89
2022-10-22T08:40:41.471Z,88
2022-10-22T08:44:54.828Z,87
2022-10-22T08:48:56.148Z,87
2022-10-22T08:50:53.526Z,87
2022-10-22T08:52:52.746Z,87
2022-10-22T08:54:55.879Z,86
2022-10-22T08:56:58.084Z,87
2022-10-22T08:58:58.347Z,86
2022-10-22T09:00:52.532Z,86
2022-10-22T09:02:59.632Z,86
2022-10-22T09:04:52.734Z,86
2022-10-22T09:06:58.025Z,86
2022-10-22T09:08:51.983Z,87
2022-10-22T09:10:52.671Z,87
2022-10-22T09:12:49.321Z,87
2022-10-22T09:15:00.642Z,87
2022-10-22T09:16:52.238Z,87
2022-10-22T09:18:57.633Z,87
2022-10-22T09:20:53.633Z,88
2022-10-22T09:22:54.230Z,88
2022-10-22T09:24:58.118Z,88
2022-10-22T09:26:54.435Z,88
2022-10-22T09:28:56.061Z,88
2022-10-22T09:30:54.535Z,88
2022-10-22T09:33:00.443Z,88
2022-10-22T09:35:00.055Z,88
2022-10-22T09:36:55.539Z,88
2022-10-22T09:38:59.278Z,88
2022-10-22T09:40:55.827Z,88
2022-10-22T09:42:52.515Z,87
2022-10-22T09:44:58.179Z,87
2022-10-22T09:46:48.861Z,87
2022-10-22T09:48:56.248Z,86
2022-10-22T09:50:52.669Z,85
2022-10-22T09:52:49.425Z,85
2022-10-22T09:54:56.450Z,85
2022-10-22T09:56:58.129Z,85
2022-10-22T09:58:52.197Z,85
2022-10-22T10:00:59.898Z,85
2022-10-22T10:02:52.419Z,85
2022-10-22T10:04:56.926Z,85
2022-10-22T10:06:52.267Z,85
2022-10-22T10:08:50.725Z,85
2022-10-22T10:10:59.072Z,85
2022-10-22T10:12:57.670Z,85
2022-10-22T10:14:55.646Z,85
2022-10-22T10:17:00.046Z,85
2022-10-22T10:18:58.739Z,85
2022-10-22T10:20:55.677Z,85
2022-10-22T10:22:52.625Z,85
2022-10-22T10:24:52.938Z,85
2022-10-22T10:27:00.260Z,85
2022-10-22T10:28:51.740Z,85
2022-10-22T10:31:00.366Z,85
2022-10-22T10:32:55.067Z,85
2022-10-22T10:34:51.266Z,86
2022-10-22T10:36:55.748Z,85
2022-10-22T10:38:58.861Z,85
2022-10-22T10:40:58.990Z,85
2022-10-22T10:43:00.239Z,85
2022-10-22T10:44:53.266Z,85
2022-10-22T10:46:51.155Z,85
2022-10-22T10:48:58.374Z,86
2022-10-22T10:50:57.018Z,86
2022-10-22T10:52:54.655Z,86
2022-10-22T10:54:57.982Z,86
2022-10-22T10:56:52.240Z,86
2022-10-22T10:58:52.694Z,86
2022-10-22T11:00:49.367Z,86
2022-10-22T11:02:58.936Z,85
2022-10-22T11:04:54.731Z,85
2022-10-22T11:06:52.768Z,88
2022-10-22T11:08:50.767Z,90
2022-10-22T11:10:59.062Z,89
2022-10-22T11:12:55.911Z,89
2022-10-22T11:15:00.637Z,88
2022-10-22T11:16:58.046Z,86
2022-10-22T11:18:55.271Z,85
2022-10-22T11:20:55.849Z,85
2022-10-22T11:23:17.311Z,85
2022-10-22T11:24:52.185Z,85
2022-10-22T11:26:54.628Z,84
2022-10-22T11:28:52.429Z,85
2022-10-22T11:31:00.348Z,85
2022-10-22T11:32:57.606Z,85
2022-10-22T11:34:59.118Z,85
2022-10-22T11:36:57.774Z,85
2022-10-22T11:38:54.482Z,85
2022-10-22T11:40:51.720Z,85
2022-10-22T11:42:53.649Z,85
2022-10-22T11:44:59.676Z,85
2022-10-22T11:46:58.955Z,85
2022-10-22T11:48:54.927Z,85
2022-10-22T11:50:52.376Z,85
2022-10-22T11:52:49.229Z,85
2022-10-22T11:54:58.796Z,84
2022-10-22T11:56:57.009Z,85
2022-10-22T11:58:54.940Z,84
2022-10-22T12:00:59.637Z,84
2022-10-22T12:02:56.185Z,84
2022-10-22T12:04:59.186Z,84
2022-10-22T12:06:52.891Z,83
2022-10-22T12:08:54.010Z,84
2022-10-22T12:10:52.199Z,84
2022-10-22T12:12:49.345Z,84
2022-10-22T12:14:51.412Z,83
2022-10-22T12:16:56.457Z,83
2022-10-22T12:18:56.635Z,82
2022-10-22T12:20:59.702Z,83
2022-10-22T12:22:54.215Z,82
2022-10-22T12:24:52.277Z,83
2022-10-22T12:27:00.412Z,83
2022-10-22T12:28:50.237Z,82
2022-10-22T12:30:52.746Z,82
2022-10-22T12:32:52.785Z,82
2022-10-22T12:34:52.073Z,83
2022-10-22T12:36:55.596Z,83
2022-10-22T12:38:55.590Z,83
2022-10-22T12:40:52.875Z,82
2022-10-22T12:42:54.265Z,82
2022-10-22T12:44:55.632Z,82
2022-10-22T12:46:56.050Z,82
2022-10-22T12:48:53.732Z,83
2022-10-22T12:50:58.425Z,82
2022-10-22T12:52:58.360Z,82
2022-10-22T12:54:55.367Z,82
2022-10-22T12:56:52.731Z,82
2022-10-22T12:58:54.161Z,82
2022-10-22T13:00:53.963Z,81
2022-10-22T13:02:55.998Z,82
2022-10-22T13:04:55.936Z,82
2022-10-22T13:06:57.341Z,82
2022-10-22T13:08:58.371Z,82
2022-10-22T13:10:52.603Z,82
2022-10-22T13:12:55.593Z,85
2022-10-22T13:14:54.081Z,100
2022-10-22T13:16:56.360Z,82
2022-10-22T13:18:57.734Z,82
2022-10-22T13:20:52.979Z,81
2022-10-22T13:23:00.864Z,82
2022-10-22T13:24:49.419Z,82
2022-10-22T13:26:59.404Z,81
2022-10-22T13:28:55.778Z,81
2022-10-22T13:30:55.213Z,81
2022-10-22T13:32:52.397Z,81
2022-10-22T13:34:57.107Z,81
2022-10-22T13:36:57.068Z,81
2022-10-22T13:38:52.153Z,81
2022-10-22T13:40:55.786Z,81
2022-10-22T13:42:56.057Z,80
2022-10-22T13:44:56.276Z,80
2022-10-22T13:46:59.482Z,81
2022-10-22T13:48:52.888Z,80
2022-10-22T13:50:51.335Z,81
2022-10-22T13:52:55.802Z,81
2022-10-22T13:54:57.017Z,81
2022-10-22T13:56:52.906Z,81
2022-10-22T13:58:53.752Z,81
2022-10-22T14:00:56.202Z,81
2022-10-22T14:02:58.203Z,81
2022-10-22T14:04:55.998Z,80
2022-10-22T14:07:00.050Z,78
2022-10-22T14:08:55.742Z,78
2022-10-22T14:10:55.278Z,79
2022-10-22T14:12:53.413Z,79
2022-10-22T14:14:53.053Z,79
2022-10-22T14:16:52.390Z,80
2022-10-22T14:18:56.227Z,80
2022-10-22T14:20:52.062Z,80
2022-10-22T14:22:52.774Z,80
2022-10-22T14:24:52.047Z,80
2022-10-22T14:26:58.530Z,80
2022-10-22T14:29:10.549Z,81
2022-10-22T14:30:56.155Z,82
2022-10-22T14:32:54.901Z,82
2022-10-22T14:34:55.758Z,81
2022-10-22T14:36:55.168Z,80
2022-10-22T14:38:54.781Z,80
2022-10-22T14:40:52.459Z,81
2022-10-22T14:42:56.608Z,80
2022-10-22T14:44:52.750Z,80
2022-10-22T14:46:52.562Z,80
2022-10-22T14:48:53.701Z,81
2022-10-22T14:50:58.539Z,81
2022-10-22T14:52:54.831Z,81
2022-10-22T14:54:52.769Z,82
2022-10-22T14:56:59.417Z,81
2022-10-22T14:58:52.839Z,81
2022-10-22T15:02:52.279Z,81
2022-10-22T15:04:52.234Z,81
2022-10-22T15:06:54.453Z,82
2022-10-22T15:08:52.174Z,82
2022-10-22T15:10:51.753Z,81
2022-10-22T15:12:51.832Z,81
2022-10-22T15:14:51.736Z,82
2022-10-22T15:16:55.386Z,82
2022-10-22T15:18:53.130Z,81
2022-10-22T15:20:51.808Z,82
2022-10-22T15:22:58.531Z,81
2022-10-22T15:24:56.287Z,81
2022-10-22T15:26:52.232Z,81
2022-10-22T15:28:57.073Z,81
2022-10-22T15:30:51.678Z,82
2022-10-22T15:32:51.864Z,82
2022-10-22T15:34:49.999Z,82
2022-10-22T15:36:54.510Z,82
2022-10-22T15:38:51.761Z,82
2022-10-22T15:40:51.770Z,82
2022-10-22T15:42:52.266Z,82
2022-10-22T15:44:51.843Z,82
2022-10-22T15:46:51.770Z,82
2022-10-22T15:48:48.974Z,82
2022-10-22T15:50:51.789Z,82
2022-10-22T15:52:51.997Z,82
2022-10-22T15:54:50.087Z,82
2022-10-22T15:58:51.735Z,82
2022-10-22T16:00:56.993Z,82
2022-10-22T16:02:51.543Z,82
2022-10-22T16:04:52.126Z,82
2022-10-22T16:06:51.773Z,82
2022-10-22T16:08:55.426Z,82
2022-10-22T16:10:55.404Z,82
2022-10-22T16:12:52.390Z,82
2022-10-22T16:14:55.022Z,82
2022-10-22T16:16:50.274Z,83
2022-10-22T16:18:51.813Z,83
2022-10-22T16:20:49.030Z,82
2022-10-22T16:22:51.530Z,82
2022-10-22T16:24:51.864Z,82
2022-10-22T16:26:52.362Z,82
2022-10-22T16:28:51.763Z,82
2022-10-22T16:30:55.151Z,83
2022-10-22T16:32:58.262Z,83
2022-10-22T16:34:51.820Z,83
2022-10-22T16:36:49.918Z,83
2022-10-22T16:38:54.627Z,82
2022-10-22T16:40:51.812Z,82
2022-10-22T16:42:51.800Z,82
2022-10-22T16:44:52.000Z,82
2022-10-22T16:46:54.668Z,82
2022-10-22T16:48:51.744Z,82
2022-10-22T16:50:52.648Z,82
2022-10-22T16:52:51.437Z,82
2022-10-22T16:54:50.399Z,82
2022-10-22T16:56:58.517Z,82
2022-10-22T16:58:52.071Z,82
2022-10-22T17:00:50.024Z,83
2022-10-22T17:02:49.099Z,83
2022-10-22T17:04:51.796Z,83
2022-10-22T17:06:49.113Z,83
2022-10-22T17:08:50.270Z,83
2022-10-22T17:10:51.783Z,83
2022-10-22T17:12:51.922Z,83
2022-10-22T17:14:49.881Z,83
2022-10-22T17:16:51.645Z,83
2022-10-22T17:18:51.889Z,83
2022-10-22T17:20:51.708Z,83
2022-10-22T17:22:50.516Z,83
2022-10-22T17:24:51.354Z,82
2022-10-22T17:26:55.420Z,82
2022-10-22T17:28:51.860Z,82
2022-10-22T17:30:58.911Z,82
2022-10-22T17:32:51.613Z,83
2022-10-22T17:34:55.492Z,83
2022-10-22T17:36:51.770Z,84
2022-10-22T17:38:51.869Z,83
2022-10-22T17:40:49.383Z,84
2022-10-22T17:42:51.712Z,84
2022-10-22T17:44:51.760Z,85
2022-10-22T17:46:52.105Z,84
2022-10-22T17:48:51.867Z,85
2022-10-22T17:50:54.626Z,85
2022-10-22T17:52:51.790Z,85
2022-10-22T17:54:55.182Z,85
2022-10-22T17:56:52.061Z,85
2022-10-22T17:58:54.659Z,86
2022-10-22T18:00:52.332Z,86
2022-10-22T18:02:51.761Z,86
2022-10-22T18:04:51.794Z,86
2022-10-22T18:06:51.003Z,87
2022-10-22T18:10:49.091Z,87
2022-10-22T18:12:56.958Z,86
2022-10-22T18:14:51.801Z,86
2022-10-22T18:16:49.177Z,86
2022-10-22T18:18:55.414Z,85
2022-10-22T18:20:51.739Z,85
2022-10-22T18:22:51.734Z,85
2022-10-22T18:24:49.918Z,85
2022-10-22T18:26:51.799Z,85
2022-10-22T18:28:51.821Z,85
2022-10-22T18:30:51.785Z,86
2022-10-22T18:32:50.951Z,86
2022-10-22T18:34:50.396Z,86
2022-10-22T18:36:55.320Z,86
2022-10-22T18:38:51.746Z,86
2022-10-22T18:40:51.281Z,86
2022-10-22T18:42:51.592Z,86
2022-10-22T18:44:52.666Z,87
2022-10-22T18:46:51.474Z,86
2022-10-22T18:48:51.783Z,86
2022-10-22T18:50:52.106Z,86
2022-10-22T18:52:49.457Z,86
2022-10-22T18:54:52.009Z,86
2022-10-22T18:56:58.016Z,87
2022-10-22T19:00:51.788Z,87
2022-10-22T19:02:49.638Z,87
2022-10-22T19:04:53.366Z,87
2022-10-22T19:06:55.694Z,87
2022-10-22T19:08:51.258Z,87
2022-10-22T19:10:51.667Z,87
2022-10-22T19:12:51.940Z,87
2022-10-22T19:14:55.058Z,87
2022-10-22T19:16:55.449Z,86
2022-10-22T19:18:51.793Z,86
2022-10-22T19:20:56.999Z,86
2022-10-22T19:22:50.660Z,85
2022-10-22T19:24:51.844Z,86
2022-10-22T19:26:49.903Z,86
2022-10-22T19:28:51.801Z,86
2022-10-22T19:30:51.860Z,86
2022-10-22T19:32:50.942Z,86
2022-10-22T19:34:52.219Z,86
2022-10-22T19:36:51.978Z,86
2022-10-22T19:38:51.920Z,86
2022-10-22T19:40:51.874Z,86
2022-10-22T19:42:50.052Z,86
2022-10-22T19:44:51.761Z,86
2022-10-22T19:46:51.822Z,86
2022-10-22T19:48:55.192Z,86
2022-10-22T19:50:54.670Z,86
2022-10-22T19:52:54.705Z,86
2022-10-22T19:54:51.788Z,86
2022-10-22T19:56:52.753Z,86
2022-10-22T19:58:52.949Z,86
2022-10-22T20:00:51.698Z,86
2022-10-22T20:02:51.787Z,86
2022-10-22T20:04:50.030Z,86
2022-10-22T20:06:50.456Z,86
2022-10-22T20:08:53.703Z,87
2022-10-22T20:10:51.281Z,87
2022-10-22T20:12:55.419Z,87
2022-10-22T20:14:51.750Z,87
2022-10-22T20:16:52.189Z,87
2022-10-22T20:20:51.797Z,88
2022-10-22T20:22:56.035Z,88
2022-10-22T20:24:51.789Z,88
2022-10-22T20:26:51.545Z,88
2022-10-22T20:28:52.291Z,88
2022-10-22T20:30:51.581Z,88
2022-10-22T20:32:49.852Z,88
2022-10-22T20:34:51.774Z,88
2022-10-22T20:36:51.831Z,88
2022-10-22T20:38:51.906Z,88
2022-10-22T20:40:49.448Z,88
2022-10-22T20:42:51.854Z,88
2022-10-22T20:44:50.002Z,88
2022-10-22T20:46:51.960Z,88
2022-10-22T20:48:58.741Z,88
2022-10-22T20:50:51.749Z,88
2022-10-22T20:52:52.323Z,88
2022-10-22T20:54:50.750Z,88
2022-10-22T20:56:51.720Z,88
2022-10-22T20:58:52.242Z,88
2022-10-22T21:00:52.117Z,88
2022-10-22T21:02:50.873Z,88
2022-10-22T21:04:54.952Z,88
2022-10-22T21:06:55.376Z,88
2022-10-22T21:08:52.121Z,88
2022-10-22T21:10:51.827Z,88
2022-10-22T21:12:51.348Z,88
2022-10-22T21:14:52.133Z,88
2022-10-22T21:16:51.854Z,88
2022-10-22T21:18:50.507Z,88
2022-10-22T21:20:51.891Z,88
2022-10-22T21:22:51.793Z,88
2022-10-22T21:24:52.660Z,88
2022-10-22T21:26:51.802Z,88
2022-10-22T21:28:52.236Z,88
2022-10-22T21:30:49.820Z,88
2022-10-22T21:32:52.259Z,88
2022-10-22T21:34:55.079Z,87
2022-10-22T21:36:51.777Z,87
2022-10-22T21:38:49.060Z,87
2022-10-22T21:40:53.418Z,87
2022-10-22T21:42:51.908Z,86
2022-10-22T21:44:51.939Z,86
2022-10-22T21:46:49.526Z,86
2022-10-22T21:48:50.233Z,86
2022-10-22T21:50:51.625Z,86
2022-10-22T21:52:54.816Z,86
2022-10-22T21:54:51.797Z,86
2022-10-22T21:56:51.777Z,87
2022-10-22T21:58:49.919Z,86
2022-10-22T22:00:52.210Z,87
2022-10-22T22:02:51.806Z,86
2022-10-22T22:04:50.493Z,86
2022-10-22T22:06:51.798Z,86
2022-10-22T22:08:51.802Z,86
2022-10-22T22:10:52.096Z,87
2022-10-22T22:12:58.621Z,87
2022-10-22T22:14:52.253Z,87
2022-10-22T22:16:51.906Z,87
2022-10-22T22:18:51.822Z,87
2022-10-22T22:20:51.748Z,86
2022-10-22T22:22:58.534Z,86
2022-10-22T22:24:52.710Z,86
2022-10-22T22:26:51.911Z,86
2022-10-22T22:28:49.167Z,86
2022-10-22T22:30:52.229Z,86
2022-10-22T22:32:51.894Z,86
2022-10-22T22:34:51.860Z,86
2022-10-22T22:36:53.486Z,86
2022-10-22T22:38:51.887Z,86
2022-10-22T22:40:51.737Z,86
2022-10-22T22:42:49.876Z,87
2022-10-22T22:44:50.679Z,86
2022-10-22T22:46:50.838Z,86
2022-10-22T22:48:55.042Z,86
2022-10-22T22:50:51.884Z,86
2022-10-22T22:52:49.575Z,86
2022-10-22T22:54:51.807Z,86
2022-10-22T22:56:55.323Z,86
2022-10-22T22:58:51.850Z,87
2022-10-22T23:00:51.860Z,87
2022-10-22T23:02:50.482Z,87
2022-10-22T23:04:56.222Z,87
2022-10-22T23:06:51.777Z,87
2022-10-22T23:08:51.864Z,87
2022-10-22T23:10:51.904Z,87
2022-10-22T23:12:51.812Z,87
2022-10-22T23:14:52.286Z,87
2022-10-22T23:16:51.758Z,87
2022-10-22T23:18:53.491Z,88
2022-10-22T23:20:51.822Z,88
2022-10-22T23:22:51.884Z,88
2022-10-22T23:24:52.401Z,88
2022-10-22T23:26:57.071Z,88
2022-10-22T23:28:51.848Z,88
2022-10-22T23:30:50.985Z,88
2022-10-22T23:32:51.823Z,88
2022-10-22T23:34:52.213Z,87
2022-10-22T23:36:51.740Z,88
2022-10-22T23:38:50.400Z,88
2022-10-22T23:40:51.774Z,88
2022-10-22T23:42:51.770Z,88
2022-10-22T23:44:51.690Z,88
2022-10-22T23:46:51.802Z,88
2022-10-22T23:48:52.003Z,88
2022-10-22T23:50:50.962Z,88
2022-10-22T23:52:55.458Z,88
2022-10-22T23:54:55.852Z,88
2022-10-22T23:56:52.007Z,88
2022-10-22T23:58:51.856Z,88
